sensor_id;sensor_type;location;lat;lon;timestamp;P1;durP1;ratioP1;P2;durP2;ratioP2
65599;SDS011;52272;-29.642;-50.764;2022-10-16T00:00:20;2.45;;;0.80;;
65599;SDS011;52272;-29.642;-50.764;2022-10-16T00:02:50;0.85;;;0.85;;
65599;SDS011;52272;-29.642;-50.764;2022-10-16T00:05:24;1.90;;;1.00;;
65599;SDS011;52272;-29.642;-50.764;2022-10-16T00:07:54;1.48;;;0.70;;
65599;SDS011;52272;-29.642;-50.764;2022-10-16T00:10:24;1.30;;;0.82;;
65599;SDS011;52272;-29.642;-50.764;2022-10-16T00:12:55;1.02;;;0.70;;
65599;SDS011;52272;-29.642;-50.764;2022-10-16T00:15:25;2.03;;;0.68;;
65599;SDS011;52272;-29.642;-50.764;2022-10-16T00:17:55;1.52;;;0.70;;
65599;SDS011;52272;-29.642;-50.764;2022-10-16T00:20:26;1.65;;;0.85;;
65599;SDS011;52272;-29.642;-50.764;2022-10-16T00:25:26;3.15;;;1.60;;
65599;SDS011;52272;-29.642;-50.764;2022-10-16T00:30:26;3.88;;;1.33;;
65599;SDS011;52272;-29.642;-50.764;2022-10-16T00:32:59;1.77;;;1.23;;
65599;SDS011;52272;-29.642;-50.764;2022-10-16T00:35:30;2.72;;;1.45;;
65599;SDS011;52272;-29.642;-50.764;2022-10-16T00:38:01;3.28;;;1.23;;
65599;SDS011;52272;-29.642;-50.764;2022-10-16T00:40:31;3.78;;;1.00;;
65599;SDS011;52272;-29.642;-50.764;2022-10-16T00:43:01;3.10;;;0.90;;
65599;SDS011;52272;-29.642;-50.764;2022-10-16T00:48:01;2.40;;;0.80;;
65599;SDS011;52272;-29.642;-50.764;2022-10-16T00:50:32;2.38;;;0.60;;
65599;SDS011;52272;-29.642;-50.764;2022-10-16T00:53:04;1.98;;;0.68;;
65599;SDS011;52272;-29.642;-50.764;2022-10-16T00:55:34;1.38;;;0.68;;
65599;SDS011;52272;-29.642;-50.764;2022-10-16T00:58:09;1.98;;;0.73;;
65599;SDS011;52272;-29.642;-50.764;2022-10-16T01:00:40;4.53;;;1.38;;
65599;SDS011;52272;-29.642;-50.764;2022-10-16T01:06:06;3.72;;;0.57;;
65599;SDS011;52272;-29.642;-50.764;2022-10-16T01:09:14;2.83;;;0.68;;
65599;SDS011;52272;-29.642;-50.764;2022-10-16T01:12:14;3.65;;;0.80;;
65599;SDS011;52272;-29.642;-50.764;2022-10-16T01:20:54;3.25;;;0.73;;
65599;SDS011;52272;-29.642;-50.764;2022-10-16T01:29:26;2.38;;;0.90;;
65599;SDS011;52272;-29.642;-50.764;2022-10-16T01:32:11;0.85;;;0.57;;
65599;SDS011;52272;-29.642;-50.764;2022-10-16T01:37:52;1.77;;;0.80;;
65599;SDS011;52272;-29.642;-50.764;2022-10-16T01:40:37;1.52;;;0.43;;
65599;SDS011;52272;-29.642;-50.764;2022-10-16T01:43:21;1.55;;;0.73;;
65599;SDS011;52272;-29.642;-50.764;2022-10-16T01:46:05;1.20;;;0.50;;
65599;SDS011;52272;-29.642;-50.764;2022-10-16T01:48:37;5.20;;;0.50;;
65599;SDS011;52272;-29.642;-50.764;2022-10-16T01:51:10;2.58;;;0.80;;
65599;SDS011;52272;-29.642;-50.764;2022-10-16T01:53:43;1.15;;;0.30;;
65599;SDS011;52272;-29.642;-50.764;2022-10-16T01:56:17;3.42;;;0.80;;
65599;SDS011;52272;-29.642;-50.764;2022-10-16T01:58:56;2.90;;;0.50;;
65599;SDS011;52272;-29.642;-50.764;2022-10-16T02:01:31;3.70;;;0.40;;
65599;SDS011;52272;-29.642;-50.764;2022-10-16T02:04:27;4.70;;;0.60;;
65599;SDS011;52272;-29.642;-50.764;2022-10-16T02:07:18;1.70;;;0.75;;
65599;SDS011;52272;-29.642;-50.764;2022-10-16T02:09:48;2.60;;;0.70;;
65599;SDS011;52272;-29.642;-50.764;2022-10-16T02:12:22;7.15;;;1.15;;
65599;SDS011;52272;-29.642;-50.764;2022-10-16T02:14:57;2.95;;;0.50;;
65599;SDS011;52272;-29.642;-50.764;2022-10-16T02:17:28;0.55;;;0.50;;
65599;SDS011;52272;-29.642;-50.764;2022-10-16T02:19:58;4.20;;;0.60;;
65599;SDS011;52272;-29.642;-50.764;2022-10-16T02:22:32;1.83;;;0.57;;
65599;SDS011;52272;-29.642;-50.764;2022-10-16T02:25:25;1.40;;;0.60;;
65599;SDS011;52272;-29.642;-50.764;2022-10-16T02:28:35;1.77;;;0.50;;
65599;SDS011;52272;-29.642;-50.764;2022-10-16T02:31:03;2.45;;;0.57;;
65599;SDS011;52272;-29.642;-50.764;2022-10-16T02:33:40;2.22;;;0.45;;
65599;SDS011;52272;-29.642;-50.764;2022-10-16T02:36:12;1.60;;;0.50;;
65599;SDS011;52272;-29.642;-50.764;2022-10-16T02:41:13;1.80;;;0.60;;
65599;SDS011;52272;-29.642;-50.764;2022-10-16T02:43:44;1.35;;;0.30;;
65599;SDS011;52272;-29.642;-50.764;2022-10-16T02:46:20;1.63;;;0.55;;
65599;SDS011;52272;-29.642;-50.764;2022-10-16T02:48:50;1.80;;;0.73;;
65599;SDS011;52272;-29.642;-50.764;2022-10-16T02:51:20;1.95;;;0.82;;
65599;SDS011;52272;-29.642;-50.764;2022-10-16T02:53:50;2.08;;;1.05;;
65599;SDS011;52272;-29.642;-50.764;2022-10-16T02:56:22;5.72;;;1.10;;
65599;SDS011;52272;-29.642;-50.764;2022-10-16T02:58:53;1.98;;;0.80;;
65599;SDS011;52272;-29.642;-50.764;2022-10-16T03:01:23;1.85;;;0.90;;
65599;SDS011;52272;-29.642;-50.764;2022-10-16T03:03:53;2.85;;;0.60;;
65599;SDS011;52272;-29.642;-50.764;2022-10-16T03:06:23;2.75;;;0.93;;
65599;SDS011;52272;-29.642;-50.764;2022-10-16T03:08:54;4.85;;;0.93;;
65599;SDS011;52272;-29.642;-50.764;2022-10-16T03:13:54;1.83;;;0.50;;
65599;SDS011;52272;-29.642;-50.764;2022-10-16T03:16:24;0.75;;;0.63;;
65599;SDS011;52272;-29.642;-50.764;2022-10-16T03:18:54;4.05;;;1.02;;
65599;SDS011;52272;-29.642;-50.764;2022-10-16T03:21:24;2.80;;;0.70;;
65599;SDS011;52272;-29.642;-50.764;2022-10-16T03:23:54;1.63;;;0.77;;
65599;SDS011;52272;-29.642;-50.764;2022-10-16T03:26:24;0.85;;;0.50;;
65599;SDS011;52272;-29.642;-50.764;2022-10-16T03:28:55;2.80;;;0.60;;
65599;SDS011;52272;-29.642;-50.764;2022-10-16T03:31:25;6.38;;;1.10;;
65599;SDS011;52272;-29.642;-50.764;2022-10-16T03:33:56;1.63;;;1.00;;
65599;SDS011;52272;-29.642;-50.764;2022-10-16T03:36:26;1.95;;;1.00;;
65599;SDS011;52272;-29.642;-50.764;2022-10-16T03:38:56;1.90;;;1.13;;
65599;SDS011;52272;-29.642;-50.764;2022-10-16T03:41:26;1.92;;;1.17;;
65599;SDS011;52272;-29.642;-50.764;2022-10-16T03:43:56;5.38;;;0.88;;
65599;SDS011;52272;-29.642;-50.764;2022-10-16T03:46:27;1.05;;;0.80;;
65599;SDS011;52272;-29.642;-50.764;2022-10-16T03:48:57;1.77;;;1.02;;
65599;SDS011;52272;-29.642;-50.764;2022-10-16T03:51:27;3.05;;;1.38;;
65599;SDS011;52272;-29.642;-50.764;2022-10-16T03:53:58;1.55;;;1.00;;
65599;SDS011;52272;-29.642;-50.764;2022-10-16T03:56:28;2.45;;;1.00;;
65599;SDS011;52272;-29.642;-50.764;2022-10-16T03:58:58;1.75;;;1.00;;
65599;SDS011;52272;-29.642;-50.764;2022-10-16T04:01:31;4.03;;;0.90;;
65599;SDS011;52272;-29.642;-50.764;2022-10-16T04:04:01;1.65;;;0.65;;
65599;SDS011;52272;-29.642;-50.764;2022-10-16T04:06:32;1.88;;;0.80;;
65599;SDS011;52272;-29.642;-50.764;2022-10-16T04:09:02;1.65;;;0.80;;
65599;SDS011;52272;-29.642;-50.764;2022-10-16T04:11:32;1.10;;;0.55;;
65599;SDS011;52272;-29.642;-50.764;2022-10-16T04:14:02;0.95;;;0.80;;
65599;SDS011;52272;-29.642;-50.764;2022-10-16T04:16:33;3.80;;;0.70;;
65599;SDS011;52272;-29.642;-50.764;2022-10-16T04:19:03;0.95;;;0.68;;
65599;SDS011;52272;-29.642;-50.764;2022-10-16T04:21:34;1.85;;;0.55;;
65599;SDS011;52272;-29.642;-50.764;2022-10-16T04:24:04;0.90;;;0.40;;
65599;SDS011;52272;-29.642;-50.764;2022-10-16T04:26:34;1.10;;;1.00;;
65599;SDS011;52272;-29.642;-50.764;2022-10-16T04:29:04;1.38;;;0.85;;
65599;SDS011;52272;-29.642;-50.764;2022-10-16T04:31:35;2.28;;;1.10;;
65599;SDS011;52272;-29.642;-50.764;2022-10-16T04:34:05;2.63;;;1.08;;
65599;SDS011;52272;-29.642;-50.764;2022-10-16T04:36:35;1.55;;;1.05;;
65599;SDS011;52272;-29.642;-50.764;2022-10-16T04:39:05;1.25;;;0.70;;
65599;SDS011;52272;-29.642;-50.764;2022-10-16T04:41:38;1.38;;;1.00;;
65599;SDS011;52272;-29.642;-50.764;2022-10-16T04:44:08;2.40;;;0.90;;
65599;SDS011;52272;-29.642;-50.764;2022-10-16T04:46:38;2.40;;;0.52;;
65599;SDS011;52272;-29.642;-50.764;2022-10-16T04:49:08;2.75;;;0.90;;
65599;SDS011;52272;-29.642;-50.764;2022-10-16T04:51:38;1.38;;;0.52;;
65599;SDS011;52272;-29.642;-50.764;2022-10-16T04:54:09;2.47;;;0.60;;
65599;SDS011;52272;-29.642;-50.764;2022-10-16T04:56:39;1.15;;;0.43;;
65599;SDS011;52272;-29.642;-50.764;2022-10-16T04:59:16;1.35;;;0.40;;
65599;SDS011;52272;-29.642;-50.764;2022-10-16T05:01:47;1.60;;;0.73;;
65599;SDS011;52272;-29.642;-50.764;2022-10-16T05:04:18;2.28;;;0.82;;
65599;SDS011;52272;-29.642;-50.764;2022-10-16T05:06:48;1.48;;;0.93;;
65599;SDS011;52272;-29.642;-50.764;2022-10-16T05:09:18;2.47;;;0.82;;
65599;SDS011;52272;-29.642;-50.764;2022-10-16T05:11:49;1.45;;;0.75;;
65599;SDS011;52272;-29.642;-50.764;2022-10-16T05:14:19;1.80;;;0.65;;
65599;SDS011;52272;-29.642;-50.764;2022-10-16T05:16:49;1.35;;;0.52;;
65599;SDS011;52272;-29.642;-50.764;2022-10-16T05:19:21;2.75;;;0.70;;
65599;SDS011;52272;-29.642;-50.764;2022-10-16T05:21:55;1.85;;;0.57;;
65599;SDS011;52272;-29.642;-50.764;2022-10-16T05:24:26;0.95;;;0.30;;
65599;SDS011;52272;-29.642;-50.764;2022-10-16T05:26:56;2.40;;;0.60;;
65599;SDS011;52272;-29.642;-50.764;2022-10-16T05:29:26;1.13;;;0.47;;
65599;SDS011;52272;-29.642;-50.764;2022-10-16T05:31:57;0.70;;;0.70;;
65599;SDS011;52272;-29.642;-50.764;2022-10-16T05:34:27;0.98;;;0.90;;
65599;SDS011;52272;-29.642;-50.764;2022-10-16T05:36:57;2.75;;;0.65;;
65599;SDS011;52272;-29.642;-50.764;2022-10-16T05:39:27;3.13;;;1.20;;
65599;SDS011;52272;-29.642;-50.764;2022-10-16T05:41:58;1.35;;;1.10;;
65599;SDS011;52272;-29.642;-50.764;2022-10-16T05:44:28;2.70;;;1.42;;
65599;SDS011;52272;-29.642;-50.764;2022-10-16T05:46:58;2.55;;;1.10;;
65599;SDS011;52272;-29.642;-50.764;2022-10-16T05:49:28;2.78;;;1.00;;
65599;SDS011;52272;-29.642;-50.764;2022-10-16T05:51:58;1.30;;;0.80;;
65599;SDS011;52272;-29.642;-50.764;2022-10-16T05:54:28;3.92;;;1.40;;
65599;SDS011;52272;-29.642;-50.764;2022-10-16T05:57:00;3.33;;;1.90;;
65599;SDS011;52272;-29.642;-50.764;2022-10-16T05:59:31;3.72;;;1.60;;
65599;SDS011;52272;-29.642;-50.764;2022-10-16T06:02:02;3.28;;;1.70;;
65599;SDS011;52272;-29.642;-50.764;2022-10-16T06:04:32;4.65;;;1.40;;
65599;SDS011;52272;-29.642;-50.764;2022-10-16T06:07:02;3.45;;;1.23;;
65599;SDS011;52272;-29.642;-50.764;2022-10-16T06:09:32;2.03;;;1.15;;
65599;SDS011;52272;-29.642;-50.764;2022-10-16T06:12:02;2.17;;;1.30;;
65599;SDS011;52272;-29.642;-50.764;2022-10-16T06:14:33;2.60;;;1.20;;
65599;SDS011;52272;-29.642;-50.764;2022-10-16T06:17:03;3.80;;;1.40;;
65599;SDS011;52272;-29.642;-50.764;2022-10-16T06:19:34;1.08;;;0.90;;
65599;SDS011;52272;-29.642;-50.764;2022-10-16T06:22:04;1.63;;;0.93;;
65599;SDS011;52272;-29.642;-50.764;2022-10-16T06:24:35;1.95;;;0.90;;
65599;SDS011;52272;-29.642;-50.764;2022-10-16T06:27:05;2.17;;;0.90;;
65599;SDS011;52272;-29.642;-50.764;2022-10-16T06:29:35;2.30;;;1.23;;
65599;SDS011;52272;-29.642;-50.764;2022-10-16T06:32:07;0.75;;;0.70;;
65599;SDS011;52272;-29.642;-50.764;2022-10-16T06:34:38;1.85;;;0.77;;
65599;SDS011;52272;-29.642;-50.764;2022-10-16T06:37:11;2.05;;;1.10;;
65599;SDS011;52272;-29.642;-50.764;2022-10-16T06:39:41;1.45;;;1.00;;
65599;SDS011;52272;-29.642;-50.764;2022-10-16T06:44:41;2.58;;;1.23;;
65599;SDS011;52272;-29.642;-50.764;2022-10-16T06:47:11;2.65;;;1.10;;
65599;SDS011;52272;-29.642;-50.764;2022-10-16T06:49:41;2.05;;;1.10;;
65599;SDS011;52272;-29.642;-50.764;2022-10-16T06:52:12;1.67;;;0.88;;
65599;SDS011;52272;-29.642;-50.764;2022-10-16T06:57:11;1.33;;;1.20;;
65599;SDS011;52272;-29.642;-50.764;2022-10-16T06:59:41;2.30;;;1.02;;
65599;SDS011;52272;-29.642;-50.764;2022-10-16T07:02:14;5.45;;;1.08;;
65599;SDS011;52272;-29.642;-50.764;2022-10-16T07:04:44;2.47;;;0.98;;
65599;SDS011;52272;-29.642;-50.764;2022-10-16T07:07:14;2.15;;;0.90;;
65599;SDS011;52272;-29.642;-50.764;2022-10-16T07:09:44;2.58;;;0.93;;
65599;SDS011;52272;-29.642;-50.764;2022-10-16T07:12:14;2.90;;;1.27;;
65599;SDS011;52272;-29.642;-50.764;2022-10-16T07:14:45;2.53;;;1.60;;
65599;SDS011;52272;-29.642;-50.764;2022-10-16T07:17:15;3.28;;;1.40;;
65599;SDS011;52272;-29.642;-50.764;2022-10-16T07:19:46;1.70;;;1.15;;
65599;SDS011;52272;-29.642;-50.764;2022-10-16T07:22:16;1.98;;;1.30;;
65599;SDS011;52272;-29.642;-50.764;2022-10-16T07:24:46;2.22;;;1.23;;
65599;SDS011;52272;-29.642;-50.764;2022-10-16T07:27:19;2.22;;;1.20;;
65599;SDS011;52272;-29.642;-50.764;2022-10-16T07:29:53;1.70;;;0.95;;
65599;SDS011;52272;-29.642;-50.764;2022-10-16T07:32:23;2.25;;;1.10;;
65599;SDS011;52272;-29.642;-50.764;2022-10-16T07:34:56;2.00;;;1.25;;
65599;SDS011;52272;-29.642;-50.764;2022-10-16T07:37:26;2.63;;;1.17;;
65599;SDS011;52272;-29.642;-50.764;2022-10-16T07:39:58;1.85;;;1.30;;
65599;SDS011;52272;-29.642;-50.764;2022-10-16T07:42:28;2.17;;;1.40;;
65599;SDS011;52272;-29.642;-50.764;2022-10-16T07:44:58;3.03;;;1.38;;
65599;SDS011;52272;-29.642;-50.764;2022-10-16T07:47:29;3.92;;;1.30;;
65599;SDS011;52272;-29.642;-50.764;2022-10-16T07:49:59;3.40;;;0.93;;
65599;SDS011;52272;-29.642;-50.764;2022-10-16T07:54:58;1.90;;;1.80;;
65599;SDS011;52272;-29.642;-50.764;2022-10-16T07:57:29;3.47;;;1.33;;
65599;SDS011;52272;-29.642;-50.764;2022-10-16T07:59:59;3.60;;;1.85;;
65599;SDS011;52272;-29.642;-50.764;2022-10-16T08:02:38;1.80;;;1.48;;
65599;SDS011;52272;-29.642;-50.764;2022-10-16T08:05:11;3.35;;;1.13;;
65599;SDS011;52272;-29.642;-50.764;2022-10-16T08:07:41;4.20;;;1.55;;
65599;SDS011;52272;-29.642;-50.764;2022-10-16T08:10:16;3.50;;;1.42;;
65599;SDS011;52272;-29.642;-50.764;2022-10-16T08:12:48;4.30;;;1.30;;
65599;SDS011;52272;-29.642;-50.764;2022-10-16T08:15:18;1.25;;;0.90;;
65599;SDS011;52272;-29.642;-50.764;2022-10-16T08:17:56;1.63;;;1.50;;
65599;SDS011;52272;-29.642;-50.764;2022-10-16T08:20:28;4.00;;;1.30;;
65599;SDS011;52272;-29.642;-50.764;2022-10-16T08:23:00;2.13;;;1.38;;
65599;SDS011;52272;-29.642;-50.764;2022-10-16T08:25:31;3.95;;;1.63;;
65599;SDS011;52272;-29.642;-50.764;2022-10-16T08:28:04;6.30;;;1.80;;
65599;SDS011;52272;-29.642;-50.764;2022-10-16T08:30:35;3.72;;;1.60;;
65599;SDS011;52272;-29.642;-50.764;2022-10-16T08:33:06;3.45;;;1.40;;
65599;SDS011;52272;-29.642;-50.764;2022-10-16T08:35:37;5.18;;;1.25;;
65599;SDS011;52272;-29.642;-50.764;2022-10-16T08:38:07;5.82;;;1.55;;
65599;SDS011;52272;-29.642;-50.764;2022-10-16T08:40:41;3.83;;;1.50;;
65599;SDS011;52272;-29.642;-50.764;2022-10-16T08:46:14;6.22;;;2.10;;
65599;SDS011;52272;-29.642;-50.764;2022-10-16T08:48:50;6.13;;;2.08;;
65599;SDS011;52272;-29.642;-50.764;2022-10-16T08:51:32;3.53;;;1.85;;
65599;SDS011;52272;-29.642;-50.764;2022-10-16T08:57:48;6.75;;;1.60;;
65599;SDS011;52272;-29.642;-50.764;2022-10-16T09:00:20;6.40;;;1.60;;
65599;SDS011;52272;-29.642;-50.764;2022-10-16T09:05:50;3.05;;;1.60;;
65599;SDS011;52272;-29.642;-50.764;2022-10-16T09:08:42;4.97;;;1.60;;
65599;SDS011;52272;-29.642;-50.764;2022-10-16T09:11:25;6.22;;;2.03;;
65599;SDS011;52272;-29.642;-50.764;2022-10-16T09:23:47;7.60;;;1.88;;
65599;SDS011;52272;-29.642;-50.764;2022-10-16T09:26:18;4.03;;;1.67;;
65599;SDS011;52272;-29.642;-50.764;2022-10-16T09:28:52;4.38;;;2.17;;
65599;SDS011;52272;-29.642;-50.764;2022-10-16T09:31:22;10.90;;;1.77;;
65599;SDS011;52272;-29.642;-50.764;2022-10-16T09:33:55;2.35;;;1.92;;
65599;SDS011;52272;-29.642;-50.764;2022-10-16T09:36:36;7.07;;;2.38;;
65599;SDS011;52272;-29.642;-50.764;2022-10-16T09:39:12;4.63;;;1.90;;
65599;SDS011;52272;-29.642;-50.764;2022-10-16T09:41:43;6.03;;;1.95;;
65599;SDS011;52272;-29.642;-50.764;2022-10-16T09:44:19;4.93;;;2.10;;
65599;SDS011;52272;-29.642;-50.764;2022-10-16T09:47:04;5.45;;;1.95;;
65599;SDS011;52272;-29.642;-50.764;2022-10-16T09:49:51;4.80;;;2.03;;
65599;SDS011;52272;-29.642;-50.764;2022-10-16T09:52:24;4.03;;;1.67;;
65599;SDS011;52272;-29.642;-50.764;2022-10-16T09:54:59;4.00;;;1.80;;
65599;SDS011;52272;-29.642;-50.764;2022-10-16T09:57:30;2.10;;;1.52;;
65599;SDS011;52272;-29.642;-50.764;2022-10-16T10:00:04;3.40;;;1.63;;
65599;SDS011;52272;-29.642;-50.764;2022-10-16T10:02:38;3.50;;;1.42;;
65599;SDS011;52272;-29.642;-50.764;2022-10-16T10:07:57;1.20;;;1.10;;
65599;SDS011;52272;-29.642;-50.764;2022-10-16T10:10:30;2.00;;;1.10;;
65599;SDS011;52272;-29.642;-50.764;2022-10-16T10:13:21;4.57;;;1.42;;
65599;SDS011;52272;-29.642;-50.764;2022-10-16T10:15:54;11.38;;;1.65;;
65599;SDS011;52272;-29.642;-50.764;2022-10-16T10:18:24;2.47;;;1.40;;
65599;SDS011;52272;-29.642;-50.764;2022-10-16T10:21:00;4.38;;;1.25;;
65599;SDS011;52272;-29.642;-50.764;2022-10-16T10:23:35;0.77;;;0.70;;
65599;SDS011;52272;-29.642;-50.764;2022-10-16T10:26:15;1.58;;;1.15;;
65599;SDS011;52272;-29.642;-50.764;2022-10-16T10:29:02;1.33;;;1.00;;
65599;SDS011;52272;-29.642;-50.764;2022-10-16T10:31:48;1.50;;;1.33;;
65599;SDS011;52272;-29.642;-50.764;2022-10-16T10:34:32;1.70;;;0.80;;
65599;SDS011;52272;-29.642;-50.764;2022-10-16T10:46:01;1.05;;;0.90;;
65599;SDS011;52272;-29.642;-50.764;2022-10-16T10:52:38;0.55;;;0.52;;
65599;SDS011;52272;-29.642;-50.764;2022-10-16T11:05:50;0.73;;;0.60;;
65599;SDS011;52272;-29.642;-50.764;2022-10-16T11:08:38;1.08;;;0.50;;
65599;SDS011;52272;-29.642;-50.764;2022-10-16T11:11:27;1.35;;;0.80;;
65599;SDS011;52272;-29.642;-50.764;2022-10-16T11:14:20;2.13;;;1.60;;
65599;SDS011;52272;-29.642;-50.764;2022-10-16T11:17:08;2.47;;;1.30;;
65599;SDS011;52272;-29.642;-50.764;2022-10-16T11:19:51;3.10;;;1.38;;
65599;SDS011;52272;-29.642;-50.764;2022-10-16T11:27:56;4.47;;;1.35;;
65599;SDS011;52272;-29.642;-50.764;2022-10-16T11:33:39;3.60;;;2.05;;
65599;SDS011;52272;-29.642;-50.764;2022-10-16T11:36:19;3.60;;;2.03;;
65599;SDS011;52272;-29.642;-50.764;2022-10-16T11:53:19;2.65;;;1.42;;
65599;SDS011;52272;-29.642;-50.764;2022-10-16T11:56:17;3.28;;;1.30;;
65599;SDS011;52272;-29.642;-50.764;2022-10-16T11:59:00;3.40;;;1.10;;
65599;SDS011;52272;-29.642;-50.764;2022-10-16T12:04:26;3.80;;;1.10;;
65599;SDS011;52272;-29.642;-50.764;2022-10-16T12:07:09;2.15;;;1.10;;
65599;SDS011;52272;-29.642;-50.764;2022-10-16T12:09:44;1.35;;;1.25;;
65599;SDS011;52272;-29.642;-50.764;2022-10-16T12:12:24;4.90;;;1.30;;
65599;SDS011;52272;-29.642;-50.764;2022-10-16T12:15:02;1.48;;;1.30;;
65599;SDS011;52272;-29.642;-50.764;2022-10-16T12:18:19;4.68;;;1.30;;
65599;SDS011;52272;-29.642;-50.764;2022-10-16T12:20:58;1.88;;;1.00;;
65599;SDS011;52272;-29.642;-50.764;2022-10-16T12:23:38;4.15;;;1.20;;
65599;SDS011;52272;-29.642;-50.764;2022-10-16T12:26:23;3.30;;;1.60;;
65599;SDS011;52272;-29.642;-50.764;2022-10-16T12:29:14;1.85;;;1.20;;
65599;SDS011;52272;-29.642;-50.764;2022-10-16T12:32:28;1.45;;;1.00;;
65599;SDS011;52272;-29.642;-50.764;2022-10-16T12:35:18;4.05;;;1.52;;
65599;SDS011;52272;-29.642;-50.764;2022-10-16T12:38:45;2.40;;;1.33;;
65599;SDS011;52272;-29.642;-50.764;2022-10-16T12:41:23;1.98;;;0.90;;
65599;SDS011;52272;-29.642;-50.764;2022-10-16T12:44:00;1.45;;;1.35;;
65599;SDS011;52272;-29.642;-50.764;2022-10-16T12:49:21;1.38;;;0.80;;
65599;SDS011;52272;-29.642;-50.764;2022-10-16T12:51:52;3.85;;;0.85;;
65599;SDS011;52272;-29.642;-50.764;2022-10-16T12:54:42;1.30;;;1.20;;
65599;SDS011;52272;-29.642;-50.764;2022-10-16T13:00:24;1.40;;;1.30;;
65599;SDS011;52272;-29.642;-50.764;2022-10-16T13:03:24;2.03;;;1.00;;
65599;SDS011;52272;-29.642;-50.764;2022-10-16T13:11:41;1.50;;;0.70;;
65599;SDS011;52272;-29.642;-50.764;2022-10-16T13:25:46;0.77;;;0.52;;
65599;SDS011;52272;-29.642;-50.764;2022-10-16T13:28:28;0.98;;;0.70;;
65599;SDS011;52272;-29.642;-50.764;2022-10-16T13:31:01;2.03;;;1.48;;
65599;SDS011;52272;-29.642;-50.764;2022-10-16T13:33:33;2.20;;;2.00;;
65599;SDS011;52272;-29.642;-50.764;2022-10-16T13:36:17;1.77;;;1.60;;
65599;SDS011;52272;-29.642;-50.764;2022-10-16T13:41:46;1.23;;;0.80;;
65599;SDS011;52272;-29.642;-50.764;2022-10-16T13:44:54;1.45;;;0.98;;
65599;SDS011;52272;-29.642;-50.764;2022-10-16T13:50:02;0.82;;;0.50;;
65599;SDS011;52272;-29.642;-50.764;2022-10-16T13:52:33;0.80;;;0.80;;
65599;SDS011;52272;-29.642;-50.764;2022-10-16T13:55:24;0.80;;;0.45;;
65599;SDS011;52272;-29.642;-50.764;2022-10-16T13:58:03;1.17;;;0.65;;
65599;SDS011;52272;-29.642;-50.764;2022-10-16T14:00:38;1.55;;;0.75;;
65599;SDS011;52272;-29.642;-50.764;2022-10-16T14:03:15;1.00;;;0.90;;
65599;SDS011;52272;-29.642;-50.764;2022-10-16T14:05:49;0.70;;;0.70;;
65599;SDS011;52272;-29.642;-50.764;2022-10-16T14:08:23;1.13;;;0.90;;
65599;SDS011;52272;-29.642;-50.764;2022-10-16T14:10:57;1.00;;;0.80;;
65599;SDS011;52272;-29.642;-50.764;2022-10-16T14:13:43;0.93;;;0.43;;
65599;SDS011;52272;-29.642;-50.764;2022-10-16T14:16:24;0.80;;;0.80;;
65599;SDS011;52272;-29.642;-50.764;2022-10-16T14:21:30;1.20;;;0.70;;
65599;SDS011;52272;-29.642;-50.764;2022-10-16T14:24:10;0.80;;;0.80;;
65599;SDS011;52272;-29.642;-50.764;2022-10-16T14:26:42;1.60;;;0.90;;
65599;SDS011;52272;-29.642;-50.764;2022-10-16T14:29:18;1.33;;;0.98;;
65599;SDS011;52272;-29.642;-50.764;2022-10-16T14:39:55;1.98;;;1.65;;
65599;SDS011;52272;-29.642;-50.764;2022-10-16T14:42:33;1.17;;;1.08;;
65599;SDS011;52272;-29.642;-50.764;2022-10-16T14:45:07;1.58;;;1.10;;
65599;SDS011;52272;-29.642;-50.764;2022-10-16T14:47:46;1.40;;;1.30;;
65599;SDS011;52272;-29.642;-50.764;2022-10-16T14:50:28;1.55;;;1.25;;
65599;SDS011;52272;-29.642;-50.764;2022-10-16T14:52:58;2.17;;;1.35;;
65599;SDS011;52272;-29.642;-50.764;2022-10-16T14:55:28;1.45;;;1.35;;
65599;SDS011;52272;-29.642;-50.764;2022-10-16T14:57:58;1.50;;;1.40;;
65599;SDS011;52272;-29.642;-50.764;2022-10-16T15:00:29;1.45;;;1.35;;
65599;SDS011;52272;-29.642;-50.764;2022-10-16T15:02:59;2.63;;;1.35;;
65599;SDS011;52272;-29.642;-50.764;2022-10-16T15:05:31;1.40;;;1.30;;
65599;SDS011;52272;-29.642;-50.764;2022-10-16T15:08:01;1.40;;;1.30;;
65599;SDS011;52272;-29.642;-50.764;2022-10-16T15:10:35;1.88;;;1.52;;
65599;SDS011;52272;-29.642;-50.764;2022-10-16T15:13:11;1.70;;;1.60;;
65599;SDS011;52272;-29.642;-50.764;2022-10-16T15:15:44;2.05;;;1.27;;
65599;SDS011;52272;-29.642;-50.764;2022-10-16T15:18:15;1.83;;;1.20;;
65599;SDS011;52272;-29.642;-50.764;2022-10-16T15:20:49;1.20;;;1.10;;
65599;SDS011;52272;-29.642;-50.764;2022-10-16T15:23:22;1.63;;;1.38;;
65599;SDS011;52272;-29.642;-50.764;2022-10-16T15:25:54;2.40;;;1.42;;
65599;SDS011;52272;-29.642;-50.764;2022-10-16T15:28:26;1.10;;;1.00;;
65599;SDS011;52272;-29.642;-50.764;2022-10-16T15:30:56;1.38;;;1.38;;
65599;SDS011;52272;-29.642;-50.764;2022-10-16T15:33:27;2.30;;;1.20;;
65599;SDS011;52272;-29.642;-50.764;2022-10-16T15:36:06;1.00;;;1.00;;
65599;SDS011;52272;-29.642;-50.764;2022-10-16T15:38:37;0.52;;;0.52;;
65599;SDS011;52272;-29.642;-50.764;2022-10-16T15:41:07;1.10;;;1.10;;
65599;SDS011;52272;-29.642;-50.764;2022-10-16T15:43:38;1.80;;;1.20;;
65599;SDS011;52272;-29.642;-50.764;2022-10-16T15:46:09;1.52;;;1.02;;
65599;SDS011;52272;-29.642;-50.764;2022-10-16T15:48:43;1.23;;;1.02;;
65599;SDS011;52272;-29.642;-50.764;2022-10-16T15:51:13;0.80;;;0.80;;
65599;SDS011;52272;-29.642;-50.764;2022-10-16T15:53:44;3.17;;;2.25;;
65599;SDS011;52272;-29.642;-50.764;2022-10-16T15:56:15;2.08;;;1.50;;
65599;SDS011;52272;-29.642;-50.764;2022-10-16T15:58:46;2.55;;;1.63;;
65599;SDS011;52272;-29.642;-50.764;2022-10-16T16:01:17;1.33;;;1.10;;
65599;SDS011;52272;-29.642;-50.764;2022-10-16T16:03:48;1.23;;;1.13;;
65599;SDS011;52272;-29.642;-50.764;2022-10-16T16:06:22;2.03;;;1.60;;
65599;SDS011;52272;-29.642;-50.764;2022-10-16T16:08:53;2.80;;;1.67;;
65599;SDS011;52272;-29.642;-50.764;2022-10-16T16:11:23;1.50;;;1.40;;
65599;SDS011;52272;-29.642;-50.764;2022-10-16T16:13:56;4.10;;;2.80;;
65599;SDS011;52272;-29.642;-50.764;2022-10-16T16:16:26;2.10;;;1.80;;
65599;SDS011;52272;-29.642;-50.764;2022-10-16T16:18:57;2.20;;;1.98;;
65599;SDS011;52272;-29.642;-50.764;2022-10-16T16:21:27;2.10;;;1.90;;
65599;SDS011;52272;-29.642;-50.764;2022-10-16T16:23:57;2.40;;;1.40;;
65599;SDS011;52272;-29.642;-50.764;2022-10-16T16:26:28;1.83;;;1.48;;
65599;SDS011;52272;-29.642;-50.764;2022-10-16T16:29:05;6.78;;;2.28;;
65599;SDS011;52272;-29.642;-50.764;2022-10-16T16:31:36;2.80;;;2.17;;
65599;SDS011;52272;-29.642;-50.764;2022-10-16T16:34:06;3.63;;;2.90;;
65599;SDS011;52272;-29.642;-50.764;2022-10-16T16:36:37;2.72;;;2.42;;
65599;SDS011;52272;-29.642;-50.764;2022-10-16T16:39:09;2.83;;;2.50;;
65599;SDS011;52272;-29.642;-50.764;2022-10-16T16:41:43;3.78;;;3.17;;
65599;SDS011;52272;-29.642;-50.764;2022-10-16T16:44:15;2.45;;;1.90;;
65599;SDS011;52272;-29.642;-50.764;2022-10-16T16:46:45;2.90;;;2.53;;
65599;SDS011;52272;-29.642;-50.764;2022-10-16T16:49:16;6.32;;;4.15;;
65599;SDS011;52272;-29.642;-50.764;2022-10-16T16:51:47;2.47;;;2.28;;
65599;SDS011;52272;-29.642;-50.764;2022-10-16T16:54:17;4.22;;;3.30;;
65599;SDS011;52272;-29.642;-50.764;2022-10-16T16:56:47;5.97;;;2.03;;
65599;SDS011;52272;-29.642;-50.764;2022-10-16T16:59:18;4.15;;;2.00;;
65599;SDS011;52272;-29.642;-50.764;2022-10-16T17:01:51;3.53;;;1.98;;
65599;SDS011;52272;-29.642;-50.764;2022-10-16T17:04:31;3.45;;;2.40;;
65599;SDS011;52272;-29.642;-50.764;2022-10-16T17:07:03;2.08;;;1.88;;
65599;SDS011;52272;-29.642;-50.764;2022-10-16T17:09:36;10.20;;;2.25;;
65599;SDS011;52272;-29.642;-50.764;2022-10-16T17:12:06;2.50;;;2.15;;
65599;SDS011;52272;-29.642;-50.764;2022-10-16T17:14:37;3.28;;;1.80;;
65599;SDS011;52272;-29.642;-50.764;2022-10-16T17:17:07;2.63;;;1.67;;